Time;durP1;ratioP1;P1;durP2;ratioP2;P2;SDS_P1;SDS_P2;PMS_P1;PMS_P2;Temp;Humidity;BMP_temperature;BMP_pressure;BME280_temperature;BME280_humidity;BME280_pressure;Samples;Min_cycle;Max_cycle;Signal;HPM_P1;HPM_P2
2023/06/05 00:02:05;;;;;;;57.03;3.80;;;;;;;23.18;50.82;99898.63;7306406;19;130013;-39
2023/06/05 00:04:30;;;;;;;63.60;4.50;;;;;;;23.07;50.92;99875.19;7309676;19;129159;-40
2023/06/05 00:06:59;;;;;;;56.72;4.07;;;;;;;23.17;51.04;99889.13;7314477;19;129430;-41
2023/06/05 00:09:25;;;;;;;94.38;6.15;;;;;;;23.19;51.02;99884.53;7307503;19;130531;-39
2023/06/05 00:11:50;;;;;;;70.68;4.75;;;;;;;23.20;51.69;99881.75;7306460;19;129571;-39
2023/06/05 00:14:16;;;;;;;23.07;1.93;;;;;;;23.18;50.46;99888.13;7312590;19;130524;-41
2023/06/05 00:16:41;;;;;;;72.60;4.23;;;;;;;23.17;51.23;99889.13;7313906;19;129246;-37
2023/06/05 00:19:06;;;;;;;30.90;2.50;;;;;;;23.18;50.97;99885.50;7311558;19;130226;-39
2023/06/05 00:21:32;;;;;;;36.07;2.93;;;;;;;23.19;51.51;99874.03;7312538;19;129445;-37
2023/06/05 00:23:57;;;;;;;36.30;2.60;;;;;;;23.19;51.09;99876.66;7313108;19;129733;-41
2023/06/05 00:26:23;;;;;;;43.67;3.20;;;;;;;23.20;51.50;99875.72;7315715;19;131069;-37
2023/06/05 00:28:48;;;;;;;20.92;2.00;;;;;;;23.17;51.34;99871.56;7311377;19;130204;-40
2023/06/05 00:31:14;;;;;;;85.10;5.80;;;;;;;23.18;50.71;99877.63;7311269;19;129945;-40
2023/06/05 00:33:40;;;;;;;51.37;3.50;;;;;;;23.20;51.27;99878.34;7309613;19;130254;-40
2023/06/05 00:36:05;;;;;;;42.50;3.03;;;;;;;23.19;50.60;99874.03;7314495;19;129838;-40
2023/06/05 00:38:31;;;;;;;34.92;2.75;;;;;;;23.16;51.55;99879.56;7314199;19;130130;-41
2023/06/05 00:40:56;;;;;;;16.53;1.60;;;;;;;23.17;51.12;99876.00;7313297;19;131285;-42
2023/06/05 00:43:22;;;;;;;93.25;5.85;;;;;;;23.17;50.88;99870.75;7311503;19;129580;-41
2023/06/05 00:45:49;;;;;;;36.08;2.97;;;;;;;23.18;50.64;99870.59;7315166;19;129059;-41
2023/06/05 00:48:14;;;;;;;46.65;3.40;;;;;;;23.07;51.53;99855.03;7313953;19;130874;-41
2023/06/05 00:50:39;;;;;;;36.17;2.80;;;;;;;23.18;51.29;99867.16;7308192;19;130324;-38
2023/06/05 00:53:06;;;;;;;48.67;3.27;;;;;;;23.20;51.06;99875.72;7312759;19;128903;-39
2023/06/05 00:55:32;;;;;;;;;;;;;;;23.28;51.61;99875.00;7315054;19;128844;-39
2023/06/05 00:57:58;;;;;;;31.20;2.60;;;;;;;23.20;51.68;99875.72;7312572;19;129674;-41
2023/06/05 01:00:25;;;;;;;55.20;4.13;;;;;;;23.19;51.69;99872.25;7311214;19;129533;-40
2023/06/05 01:02:53;;;;;;;59.03;3.78;;;;;;;23.19;51.15;99868.78;7312834;19;129792;-39
2023/06/05 01:05:19;;;;;;;115.10;7.03;;;;;;;23.18;51.20;99867.16;7304717;19;130446;-37
2023/06/05 01:07:47;;;;;;;;;;;;;;;23.24;52.17;99863.94;7298780;19;130845;-39
2023/06/05 01:10:13;;;;;;;28.92;2.47;;;;;;;23.20;51.05;99870.47;7304735;19;129489;-40
2023/06/05 01:12:43;;;;;;;47.43;3.03;;;;;;;23.17;51.65;99865.50;7314537;19;128930;-38
2023/06/05 01:15:09;;;;;;;80.80;5.55;;;;;;;23.19;51.13;99858.28;7308136;19;129977;-40
2023/06/05 01:17:36;;;;;;;28.10;2.53;;;;;;;23.16;51.25;99855.97;7311785;19;129117;-39
2023/06/05 01:20:07;;;;;;;45.30;3.25;;;;;;;23.19;51.96;99864.38;7313957;19;129685;-42
2023/06/05 01:22:34;;;;;;;57.45;3.83;;;;;;;23.09;49.87;99847.00;7312755;19;130269;-39
2023/06/05 01:25:01;;;;;;;;;;;;;;;23.25;51.62;99863.00;7312964;19;129089;-39
2023/06/05 01:27:32;;;;;;;41.80;3.38;;;;;;;23.10;50.79;99844.28;7314618;19;130900;-41
2023/06/05 01:30:32;;;;;;;34.25;2.83;;;;;;;23.19;51.92;99869.63;7310908;19;129715;-37
2023/06/05 01:33:12;;;;;;;34.97;2.85;;;;;;;23.19;52.02;99866.16;7310658;19;128881;-40
2023/06/05 01:35:39;;;;;;;50.80;3.67;;;;;;;23.17;51.86;99862.88;7310901;19;128990;-40
2023/06/05 01:38:06;;;;;;;37.67;3.08;;;;;;;23.17;51.64;99855.00;7307363;19;130529;-40
2023/06/05 01:40:34;;;;;;;83.72;5.28;;;;;;;23.15;51.94;99860.38;7308045;19;130852;-37
2023/06/05 01:43:02;;;;;;;26.08;2.42;;;;;;;23.16;51.69;99858.59;7311590;19;129095;-40
2023/06/05 01:45:28;;;;;;;29.50;2.35;;;;;;;23.14;51.02;99863.16;7312147;19;129702;-40
2023/06/05 01:47:56;;;;;;;41.05;3.63;;;;;;;23.16;51.85;99863.84;7311541;19;129487;-41
2023/06/05 01:50:22;;;;;;;146.52;8.68;;;;;;;23.15;51.10;99856.94;7305046;19;129623;-38
2023/06/05 01:52:48;;;;;;;60.15;3.97;;;;;;;23.16;51.85;99855.97;7310584;19;128957;-39
2023/06/05 01:55:23;;;;;;;56.72;4.13;;;;;;;23.16;51.69;99862.03;7307876;19;129211;-40
2023/06/05 01:57:50;;;;;;;50.22;3.42;;;;;;;23.16;51.39;99856.81;7311866;19;130613;-40
2023/06/05 02:00:15;;;;;;;;;;;;;;;23.25;51.69;99852.50;7308762;19;129563;-40
2023/06/05 02:02:45;;;;;;;50.80;3.58;;;;;;;23.19;51.68;99853.06;7308256;19;130946;-38
2023/06/05 02:05:12;;;;;;;41.17;3.03;;;;;;;23.18;50.74;99856.66;7312571;19;129484;-41
2023/06/05 02:07:43;;;;;;;31.02;2.63;;;;;;;23.16;51.52;99853.34;7310959;19;129267;-41
2023/06/05 02:10:09;;;;;;;39.65;2.83;;;;;;;23.16;51.85;99846.31;7311705;19;129692;-40
2023/06/05 02:12:41;;;;;;;57.85;3.58;;;;;;;23.16;51.20;99848.09;7310872;19;129155;-40
2023/06/05 02:15:08;;;;;;;37.75;3.05;;;;;;;23.09;50.68;99831.28;7309886;19;129239;-40
2023/06/05 02:17:34;;;;;;;7.53;1.40;;;;;;;23.19;51.21;99842.56;7309741;19;131798;-41
2023/06/05 02:19:59;;;;;;;46.50;3.40;;;;;;;23.15;51.26;99843.84;7308284;19;129451;-40
2023/06/05 02:22:25;;;;;;;59.80;4.05;;;;;;;23.15;50.89;99841.22;7309914;19;129987;-39
2023/06/05 02:24:53;;;;;;;29.37;2.67;;;;;;;23.16;51.52;99838.44;7309468;19;129012;-40
2023/06/05 02:27:19;;;;;;;90.65;6.15;;;;;;;23.15;50.76;99844.63;7303887;19;129829;-38
2023/06/05 02:29:44;;;;;;;25.35;2.50;;;;;;;23.04;51.22;99817.75;7309475;19;129854;-41
2023/06/05 02:32:11;;;;;;;59.40;3.72;;;;;;;23.15;51.55;99841.22;7309407;19;130848;-41
2023/06/05 02:34:37;;;;;;;32.15;2.60;;;;;;;23.14;51.60;99829.88;7309232;19;129658;-42
2023/06/05 02:37:03;;;;;;;25.25;2.45;;;;;;;23.15;50.98;99835.97;7310359;19;129582;-41
2023/06/05 02:39:30;;;;;;;41.33;2.97;;;;;;;23.18;51.21;99840.91;7311325;19;129783;-41
2023/06/05 02:41:56;;;;;;;44.78;3.15;;;;;;;23.15;51.30;99842.00;7307766;19;130689;-40
2023/06/05 02:44:22;;;;;;;36.37;2.67;;;;;;;23.15;50.95;99839.41;7309420;19;129828;-41
2023/06/05 02:46:47;;;;;;;38.15;3.03;;;;;;;23.02;50.37;99814.47;7309123;19;130378;-42
2023/06/05 02:49:13;;;;;;;35.22;3.00;;;;;;;23.11;50.76;99830.19;7311547;19;129105;-42
2023/06/05 02:51:38;;;;;;;54.10;3.55;;;;;;;23.14;51.24;99840.38;7309630;19;129304;-40
2023/06/05 02:54:03;;;;;;;35.07;2.60;;;;;;;23.13;51.71;99836.13;7308952;19;129018;-40
2023/06/05 02:56:29;;;;;;;39.58;2.95;;;;;;;23.13;51.55;99837.91;7308089;19;129515;-41
2023/06/05 02:58:56;;;;;;;24.47;2.27;;;;;;;23.11;50.63;99839.81;7311405;19;129613;-40
2023/06/05 03:01:22;;;;;;;77.10;4.80;;;;;;;23.12;51.07;99837.06;7307005;19;130118;-41
2023/06/05 03:03:48;;;;;;;57.58;3.70;;;;;;;23.15;51.62;99841.22;7304720;19;129645;-41
2023/06/05 03:06:17;;;;;;;73.00;5.07;;;;;;;23.14;51.23;99842.16;7305154;19;131154;-40
2023/06/05 03:08:42;;;;;;;62.25;4.45;;;;;;;23.10;51.10;99838.19;7301489;19;130401;-42
2023/06/05 03:11:08;;;;;;;70.47;4.80;;;;;;;23.13;51.15;99849.22;7304732;19;130938;-41
2023/06/05 03:13:33;;;;;;;85.77;5.37;;;;;;;23.15;51.46;99846.47;7296655;19;129889;-41
2023/06/05 03:16:00;;;;;;;28.83;2.53;;;;;;;23.14;51.60;99853.50;7306772;19;129368;-40
2023/06/05 03:18:27;;;;;;;83.07;5.50;;;;;;;23.14;51.40;99845.63;7307171;19;131078;-40
2023/06/05 03:20:56;;;;;;;74.65;4.78;;;;;;;23.06;50.62;99826.31;7301590;19;129061;-40
2023/06/05 03:23:27;;;;;;;33.75;2.70;;;;;;;23.03;51.79;99827.44;7306397;19;130114;-39
2023/06/05 03:25:53;;;;;;;51.92;3.75;;;;;;;23.10;51.20;99836.41;7304523;19;129597;-40
2023/06/05 03:28:19;;;;;;;63.20;4.13;;;;;;;23.06;50.95;99831.56;7303206;19;129821;-40
2023/06/05 03:30:45;;;;;;;98.47;6.10;;;;;;;23.12;51.51;99842.31;7307107;19;130404;-40
2023/06/05 03:33:10;;;;;;;85.97;5.50;;;;;;;23.11;51.86;99839.81;7309480;19;129388;-40
2023/06/05 03:35:36;;;;;;;50.50;3.83;;;;;;;23.05;51.73;99830.75;7305134;19;130866;-40
2023/06/05 03:38:02;;;;;;;33.60;2.65;;;;;;;23.10;51.25;99832.94;7312246;19;130473;-42
2023/06/05 03:40:28;;;;;;;44.50;3.15;;;;;;;23.13;50.68;99840.53;7314762;19;129399;-41
2023/06/05 03:42:54;;;;;;;11.93;1.57;;;;;;;23.13;51.08;99837.91;7317355;19;129436;-41
2023/06/05 03:45:19;;;;;;;47.33;3.83;;;;;;;23.11;51.16;99827.56;7312949;19;129641;-42
2023/06/05 03:47:48;;;;;;;41.22;2.70;;;;;;;23.13;50.62;99840.53;7314243;19;130237;-41
2023/06/05 03:50:14;;;;;;;42.85;3.08;;;;;;;23.11;51.40;99834.59;7312351;19;128880;-40
2023/06/05 03:52:40;;;;;;;34.20;2.53;;;;;;;23.14;51.57;99834.28;7317177;19;128940;-39
2023/06/05 03:55:07;;;;;;;17.00;1.90;;;;;;;23.12;51.03;99838.88;7312679;19;129510;-41
2023/06/05 03:57:33;;;;;;;28.23;2.50;;;;;;;23.10;50.92;99835.56;7316081;19;129441;-40
2023/06/05 03:59:59;;;;;;;56.00;3.60;;;;;;;23.10;51.31;99835.56;7314174;19;129322;-41
2023/06/05 04:02:25;;;;;;;41.40;3.00;;;;;;;23.09;51.69;99841.75;7310747;19;128907;-40
2023/06/05 04:04:50;;;;;;;66.50;4.60;;;;;;;23.10;51.20;99849.53;7301278;19;129542;-39
2023/06/05 04:07:16;;;;;;;46.05;3.35;;;;;;;23.09;51.11;99836.53;7305625;19;129553;-39
2023/06/05 04:09:42;;;;;;;44.10;2.87;;;;;;;23.10;51.25;99846.06;7315941;19;130996;-39
2023/06/05 04:12:10;;;;;;;32.17;2.40;;;;;;;23.09;50.68;99847.00;7313885;19;129320;-42
2023/06/05 04:14:35;;;;;;;51.47;3.67;;;;;;;23.07;51.93;99843.72;7312030;19;130146;-41
2023/06/05 04:17:01;;;;;;;106.53;6.68;;;;;;;23.09;51.35;99849.63;7311519;19;129655;-38
2023/06/05 04:19:27;;;;;;;13.93;2.17;;;;;;;23.09;51.91;99850.47;7312562;19;129195;-41
2023/06/05 04:21:52;;;;;;;89.43;5.93;;;;;;;23.09;51.20;99841.75;7309464;19;130262;-41
2023/06/05 04:24:18;;;;;;;73.38;4.97;;;;;;;23.12;51.24;99846.75;7303621;19;130664;-38
2023/06/05 04:26:43;;;;;;;80.53;5.32;;;;;;;23.08;50.77;99845.38;7302618;19;129666;-39
2023/06/05 04:29:18;;;;;;;69.90;5.03;;;;;;;23.10;51.34;99843.44;7308509;19;130386;-40
2023/06/05 04:31:47;;;;;;;55.38;3.67;;;;;;;23.10;51.09;99838.19;7307489;19;130093;-39
2023/06/05 04:34:13;;;;;;;62.20;4.35;;;;;;;23.09;50.85;99839.13;7309912;19;129434;-42
2023/06/05 04:36:40;;;;;;;69.65;4.97;;;;;;;23.08;51.10;99842.75;7314084;19;130097;-38
2023/06/05 04:39:14;;;;;;;65.13;4.30;;;;;;;23.08;51.10;99840.97;7313319;19;129558;-38
2023/06/05 04:41:44;;;;;;;32.88;2.35;;;;;;;23.09;51.26;99844.38;7315385;19;128856;-41
2023/06/05 04:44:16;;;;;;;62.97;4.35;;;;;;;23.09;51.44;99847.00;7310384;19;129775;-39
2023/06/05 04:46:43;;;;;;;99.97;6.43;;;;;;;23.11;51.01;99845.06;7300465;19;131300;-42
2023/06/05 04:49:10;;;;;;;57.75;3.92;;;;;;;23.08;51.81;99843.59;7311757;19;129502;-39
2023/06/05 04:51:36;;;;;;;68.72;4.50;;;;;;;23.01;51.61;99831.16;7309279;19;129376;-39
2023/06/05 04:54:02;;;;;;;50.47;3.28;;;;;;;23.11;50.92;99840.66;7307612;19;129580;-39
2023/06/05 04:56:28;;;;;;;99.73;6.37;;;;;;;23.10;51.35;99843.44;7308370;19;129969;-42
2023/06/05 04:58:53;;;;;;;71.53;4.35;;;;;;;23.08;49.82;99845.38;7310364;19;129573;-39
2023/06/05 05:01:19;;;;;;;35.35;2.60;;;;;;;23.10;51.12;99846.91;7310296;19;128946;-39
2023/06/05 05:03:46;;;;;;;23.70;2.23;;;;;;;23.09;51.15;99841.75;7313679;19;130197;-39
2023/06/05 05:06:16;;;;;;;85.47;5.78;;;;;;;23.10;51.69;99843.44;7298923;19;130376;-40
2023/06/05 05:08:43;;;;;;;113.22;7.38;;;;;;;23.01;51.34;99834.63;7292429;19;130443;-36
2023/06/05 05:11:08;;;;;;;51.70;3.95;;;;;;;23.09;51.55;99857.50;7297167;19;129461;-39
2023/06/05 05:13:33;;;;;;;31.77;2.45;;;;;;;23.10;50.53;99856.53;7308657;19;130346;-42
2023/06/05 05:15:59;;;;;;;64.47;3.78;;;;;;;23.11;51.53;99851.16;7309419;19;129964;-41
2023/06/05 05:18:25;;;;;;;40.63;3.00;;;;;;;23.11;51.58;99851.16;7313306;19;129622;-42
2023/06/05 05:20:50;;;;;;;89.25;5.60;;;;;;;23.07;51.14;99854.22;7309552;19;129589;-41
2023/06/05 05:23:15;;;;;;;30.97;2.73;;;;;;;23.08;51.69;99855.84;7310676;19;130160;-39
2023/06/05 05:25:41;;;;;;;37.47;2.92;;;;;;;23.06;51.38;99847.31;7310683;19;130068;-40
2023/06/05 05:28:06;;;;;;;45.47;3.20;;;;;;;23.08;50.91;99850.63;7312398;19;129307;-41
2023/06/05 05:30:32;;;;;;;47.00;3.60;;;;;;;23.10;51.24;99862.63;7310644;19;129820;-39
2023/06/05 05:32:58;;;;;;;30.83;2.03;;;;;;;23.08;50.95;99861.94;7310187;19;129662;-39
2023/06/05 05:35:23;;;;;;;58.22;3.88;;;;;;;23.09;51.45;99860.13;7310249;19;129448;-41
2023/06/05 05:37:48;;;;;;;41.50;2.97;;;;;;;23.01;50.91;99839.03;7313452;19;128991;-41
2023/06/05 05:40:17;;;;;;;43.10;3.15;;;;;;;23.05;50.84;99856.16;7310174;19;129378;-42
2023/06/05 05:42:42;;;;;;;32.60;2.60;;;;;;;23.06;51.38;99857.78;7311723;19;130287;-41
2023/06/05 05:45:08;;;;;;;103.82;6.25;;;;;;;23.07;50.71;99855.03;7308911;19;131253;-41
2023/06/05 05:47:34;;;;;;;66.20;4.20;;;;;;;23.09;51.54;99857.50;7310571;19;129574;-42
2023/06/05 05:49:59;;;;;;;93.67;6.07;;;;;;;23.09;50.93;99852.25;7308716;19;129642;-41
2023/06/05 05:52:25;;;;;;;47.73;3.43;;;;;;;23.09;51.07;99860.13;7302983;19;131554;-38
2023/06/05 05:54:51;;;;;;;55.45;3.70;;;;;;;23.09;51.14;99858.34;7307485;19;129608;-38
2023/06/05 05:57:17;;;;;;;55.33;3.75;;;;;;;23.08;51.00;99861.09;7308216;19;129288;-41
2023/06/05 05:59:44;;;;;;;55.88;4.18;;;;;;;23.09;51.36;99858.34;7311434;19;129407;-42
2023/06/05 06:02:12;;;;;;;44.97;3.35;;;;;;;23.10;50.86;99860.00;7311059;19;129817;-37
2023/06/05 06:04:39;;;;;;;78.00;5.38;;;;;;;23.10;51.42;99872.28;7307486;19;129661;-40
2023/06/05 06:07:05;;;;;;;42.83;3.17;;;;;;;23.04;50.80;99859.72;7311162;19;129000;-38
2023/06/05 06:09:31;;;;;;;42.35;3.38;;;;;;;23.09;51.29;99857.50;7310591;19;130261;-38
2023/06/05 06:11:57;;;;;;;55.07;4.00;;;;;;;23.06;50.98;99853.38;7309538;19;129157;-41
2023/06/05 06:14:23;;;;;;;60.37;3.90;;;;;;;23.08;50.70;99861.09;7310404;19;130243;-42
2023/06/05 06:16:50;;;;;;;48.73;3.33;;;;;;;23.06;51.30;99853.38;7312967;19;130732;-40
2023/06/05 06:19:16;;;;;;;22.02;2.08;;;;;;;23.03;51.81;99847.59;7310250;19;129450;-40
2023/06/05 06:21:42;;;;;;;32.35;2.72;;;;;;;22.93;51.56;99831.06;7309261;19;130801;-40
2023/06/05 06:24:08;;;;;;;116.20;7.47;;;;;;;23.06;51.16;99855.16;7303013;19;132049;-38
2023/06/05 06:26:34;;;;;;;73.40;4.63;;;;;;;23.06;51.38;99852.53;7311193;19;130582;-39
2023/06/05 06:28:59;;;;;;;24.40;2.47;;;;;;;23.05;50.91;99853.53;7311339;19;129049;-41
2023/06/05 06:31:25;;;;;;;29.60;2.40;;;;;;;23.06;51.21;99853.38;7310659;19;129476;-41
2023/06/05 06:33:50;;;;;;;56.83;3.80;;;;;;;23.09;51.37;99852.25;7309285;19;129565;-41
2023/06/05 06:36:17;;;;;;;54.67;4.03;;;;;;;23.08;51.60;99853.22;7311953;19;129545;-39
2023/06/05 06:38:43;;;;;;;;;;;;;;;23.11;51.76;99853.78;7309641;19;130452;-37
2023/06/05 06:41:08;;;;;;;61.53;4.05;;;;;;;23.08;51.22;99854.06;7309616;19;130402;-40
2023/06/05 06:43:34;;;;;;;63.42;3.95;;;;;;;23.07;50.43;99854.22;7304386;19;129632;-41
2023/06/05 06:46:00;;;;;;;43.20;3.22;;;;;;;23.07;50.72;99859.47;7309972;19;130505;-39
2023/06/05 06:48:25;;;;;;;60.73;4.33;;;;;;;23.03;51.34;99856.28;7309013;19;129803;-41
2023/06/05 06:50:52;;;;;;;38.88;2.85;;;;;;;23.05;51.29;99851.75;7308816;19;129357;-37
2023/06/05 06:53:18;;;;;;;107.18;6.65;;;;;;;23.09;51.25;99860.13;7307921;19;130017;-38
2023/06/05 06:55:43;;;;;;;43.33;3.03;;;;;;;22.98;51.72;99844.56;7308065;19;129031;-40
2023/06/05 06:58:09;;;;;;;80.43;5.10;;;;;;;23.09;51.47;99862.75;7306897;19;129179;-39
2023/06/05 07:00:34;;;;;;;47.03;3.35;;;;;;;23.10;51.03;99864.41;7306726;19;131302;-39
2023/06/05 07:03:00;;;;;;;53.27;3.37;;;;;;;23.10;51.24;99864.41;7310002;19;129765;-39
2023/06/05 07:05:26;;;;;;;66.13;4.80;;;;;;;23.08;51.76;99861.09;7299153;19;130078;-40
2023/06/05 07:07:51;;;;;;;109.63;7.20;;;;;;;23.07;50.94;99870.75;7300954;19;129958;-37
2023/06/05 07:10:17;;;;;;;44.33;3.22;;;;;;;23.08;51.24;99871.59;7309594;19;130020;-42
2023/06/05 07:12:42;;;;;;;46.90;3.25;;;;;;;23.08;51.02;99871.59;7317202;19;129935;-40
2023/06/05 07:15:08;;;;;;;27.05;2.25;;;;;;;23.10;51.08;99865.25;7314045;19;129443;-40
2023/06/05 07:17:33;;;;;;;22.42;2.05;;;;;;;22.99;51.60;99841.00;7316987;19;129987;-40
2023/06/05 07:19:58;;;;;;;62.85;4.25;;;;;;;23.08;51.60;99861.09;7308850;19;131894;-42
2023/06/05 07:22:26;;;;;;;32.73;2.57;;;;;;;23.10;51.32;99854.75;7314158;19;129588;-41
2023/06/05 07:24:53;;;;;;;26.70;2.20;;;;;;;23.10;51.71;99861.78;7314114;19;128932;-37
2023/06/05 07:27:19;;;;;;;26.02;2.47;;;;;;;23.11;51.26;99860.81;7316218;19;129211;-40
2023/06/05 07:29:45;;;;;;;48.28;3.20;;;;;;;22.96;51.22;99836.00;7317216;19;130792;-41
2023/06/05 07:32:10;;;;;;;53.65;3.97;;;;;;;23.04;50.57;99854.47;7315499;19;129214;-39
2023/06/05 07:34:36;;;;;;;27.67;2.30;;;;;;;23.06;50.89;99847.31;7314989;19;129146;-41
2023/06/05 07:37:01;;;;;;;54.05;3.67;;;;;;;23.03;50.96;99843.19;7317210;19;129747;-39
2023/06/05 07:39:28;;;;;;;31.25;2.83;;;;;;;23.04;50.07;99844.00;7315523;19;129531;-40
2023/06/05 07:41:53;;;;;;;43.17;3.13;;;;;;;22.97;50.80;99829.81;7316539;19;129927;-37
2023/06/05 07:44:21;;;;;;;33.97;3.00;;;;;;;23.00;50.62;99843.47;7316353;19;129489;-40
2023/06/05 07:46:47;;;;;;;35.25;2.63;;;;;;;22.99;50.20;99856.72;7316725;19;129840;-42
2023/06/05 07:49:15;;;;;;;72.55;4.60;;;;;;;22.99;49.81;99848.88;7311278;19;129456;-40
2023/06/05 07:51:41;;;;;;;63.85;4.35;;;;;;;22.98;50.09;99836.69;7310936;19;130232;-40
2023/06/05 07:54:08;;;;;;;72.35;4.88;;;;;;;22.99;50.52;99839.19;7313403;19;129861;-41
2023/06/05 07:56:34;;;;;;;32.55;2.63;;;;;;;22.99;50.21;99841.81;7317280;19;129308;-40
2023/06/05 07:59:02;;;;;;;78.45;5.13;;;;;;;22.98;50.16;99839.31;7305742;19;130913;-39
2023/06/05 08:01:31;;;;;;;64.55;4.53;;;;;;;22.98;50.72;99844.56;7309172;19;130533;-38
2023/06/05 08:03:57;;;;;;;66.68;4.55;;;;;;;22.96;50.23;99836.00;7307688;19;130076;-40
2023/06/05 08:06:26;;;;;;;55.40;4.25;;;;;;;22.87;50.68;99821.16;7310085;19;129155;-41
2023/06/05 08:08:51;;;;;;;75.97;5.00;;;;;;;23.01;50.08;99833.78;7313659;19;130167;-39
2023/06/05 08:11:17;;;;;;;28.95;2.60;;;;;;;23.01;49.56;99831.16;7315688;19;129128;-40
2023/06/05 08:13:43;;;;;;;83.07;6.20;;;;;;;22.99;49.38;99830.50;7313546;19;130492;-39
2023/06/05 08:16:09;;;;;;;28.63;2.93;;;;;;;23.02;50.06;99835.47;7308749;19;130268;-38
2023/06/05 08:18:34;;;;;;;71.28;4.38;;;;;;;23.03;49.42;99831.84;7314825;19;129707;-40
2023/06/05 08:21:00;;;;;;;50.30;3.57;;;;;;;22.94;49.75;99827.47;7315341;19;129148;-40
2023/06/05 08:23:26;;;;;;;46.43;3.50;;;;;;;23.00;49.65;99826.91;7312905;19;129105;-41
2023/06/05 08:25:52;;;;;;;34.72;2.85;;;;;;;22.97;49.42;99832.44;7316344;19;130446;-40
2023/06/05 08:28:17;;;;;;;34.53;2.75;;;;;;;22.97;49.67;99828.00;7314887;19;129752;-39
2023/06/05 08:30:44;;;;;;;51.50;3.72;;;;;;;22.96;50.01;99834.22;7314875;19;129569;-39
2023/06/05 08:33:09;;;;;;;128.95;8.23;;;;;;;22.98;50.25;99823.59;7309117;19;129468;-41
2023/06/05 08:35:35;;;;;;;33.92;3.17;;;;;;;22.94;49.69;99819.63;7311847;19;130092;-40
2023/06/05 08:38:01;;;;;;;44.73;3.10;;;;;;;23.00;50.40;99822.50;7315835;19;129578;-40
2023/06/05 08:40:28;;;;;;;47.10;3.88;;;;;;;23.00;50.40;99821.66;7310466;19;129264;-39
2023/06/05 08:42:55;;;;;;;27.88;2.42;;;;;;;22.91;50.33;99804.16;7315600;19;128973;-41
2023/06/05 08:45:20;;;;;;;41.20;3.28;;;;;;;22.98;50.42;99819.19;7311720;19;130379;-42
2023/06/05 08:47:50;;;;;;;74.00;4.60;;;;;;;23.03;50.93;99821.38;7313778;19;129221;-42
2023/06/05 08:50:16;;;;;;;55.60;3.95;;;;;;;23.04;49.58;99817.75;7313422;19;129234;-37
2023/06/05 08:52:43;;;;;;;70.23;4.87;;;;;;;23.04;49.64;99817.75;7311854;19;129220;-39
2023/06/05 08:55:10;;;;;;;44.03;3.13;;;;;;;23.02;50.30;99814.47;7306700;19;129292;-41
2023/06/05 08:57:38;;;;;;;65.47;4.50;;;;;;;22.99;50.40;99815.56;7311990;19;131651;-41
2023/06/05 09:00:07;;;;;;;61.15;4.18;;;;;;;23.01;49.78;99828.53;7314092;19;129223;-38
2023/06/05 09:02:33;;;;;;;67.03;4.85;;;;;;;22.97;49.99;99814.09;7304580;19;129538;-42
2023/06/05 09:05:01;;;;;;;97.40;6.43;;;;;;;23.03;49.89;99818.75;7305414;19;131093;-41
2023/06/05 09:07:28;;;;;;;33.42;2.60;;;;;;;23.03;49.92;99816.13;7299575;19;130975;-40
2023/06/05 09:09:54;;;;;;;118.95;6.68;;;;;;;23.04;49.29;99812.53;7309544;19;130098;-40
2023/06/05 09:12:20;;;;;;;117.60;7.32;;;;;;;23.05;49.46;99806.31;7309920;19;129429;-39
2023/06/05 09:14:45;;;;;;;13.60;1.63;;;;;;;23.04;50.44;99813.34;7301561;19;129479;-41
2023/06/05 09:17:14;;;;;;;46.33;3.42;;;;;;;23.03;50.77;99806.47;7313880;19;129759;-42
2023/06/05 09:19:42;;;;;;;35.40;2.72;;;;;;;22.94;50.44;99806.50;7313149;19;129759;-42
2023/06/05 09:22:08;;;;;;;32.63;2.42;;;;;;;22.99;50.42;99809.53;7311844;19;129912;-40
2023/06/05 09:24:34;;;;;;;14.40;1.90;;;;;;;23.00;51.41;99805.94;7311860;19;128720;-41
2023/06/05 09:27:00;;;;;;;35.65;2.78;;;;;;;23.00;50.80;99812.00;7312495;19;131681;-40
2023/06/05 09:29:27;;;;;;;46.38;3.17;;;;;;;23.02;51.42;99806.63;7314047;19;128891;-40
2023/06/05 09:31:54;;;;;;;37.22;2.88;;;;;;;22.99;51.84;99799.03;7313927;19;129324;-40
2023/06/05 09:34:51;;;;;;;31.17;2.30;;;;;;;22.93;52.21;99800.44;7311823;19;129354;-40
2023/06/05 09:37:17;;;;;;;34.25;2.83;;;;;;;22.88;51.86;99797.41;7306739;19;129997;-42
2023/06/05 09:39:46;;;;;;;28.90;2.28;;;;;;;22.89;51.84;99796.44;7313066;19;129255;-40
2023/06/05 09:42:11;;;;;;;49.33;3.38;;;;;;;22.94;51.22;99798.66;7313596;19;128743;-41
2023/06/05 09:44:37;;;;;;;33.22;2.70;;;;;;;22.92;51.87;99792.72;7310635;19;129117;-38
2023/06/05 09:47:09;;;;;;;12.17;1.83;;;;;;;22.68;52.70;99787.94;7313976;19;129584;-39
2023/06/05 09:49:40;;;;;;;27.63;2.35;;;;;;;22.81;52.32;99803.34;7312587;19;129440;-40
2023/06/05 09:52:11;;;;;;;48.47;3.17;;;;;;;22.85;51.99;99799.47;7311872;19;129316;-41
2023/06/05 09:54:38;;;;;;;49.88;3.55;;;;;;;22.89;51.66;99795.63;7309999;19;129203;-41
2023/06/05 09:57:04;;;;;;;;;;;;;;;23.00;52.09;99790.19;7315068;19;129611;-40
2023/06/05 09:59:31;;;;;;;30.77;2.53;;;;;;;22.93;51.79;99778.63;7313217;19;131550;-40
2023/06/05 10:02:04;;;;;;;31.73;2.65;;;;;;;22.90;51.79;99764.00;7312767;19;128925;-41
2023/06/05 10:04:34;;;;;;;47.75;3.40;;;;;;;22.96;51.77;99783.56;7310679;19;128907;-38
2023/06/05 10:07:01;;;;;;;48.00;3.55;;;;;;;22.77;52.26;99767.91;7311691;19;130006;-40
2023/06/05 10:09:30;;;;;;;28.83;2.35;;;;;;;22.81;52.29;99764.03;7312139;19;129364;-41
2023/06/05 10:11:56;;;;;;;28.75;2.35;;;;;;;22.93;50.97;99783.88;7311041;19;130295;-42
2023/06/05 10:14:22;;;;;;;48.20;3.27;;;;;;;22.94;51.95;99780.28;7310815;19;129127;-41
2023/06/05 10:16:51;;;;;;;36.38;2.78;;;;;;;22.95;52.55;99771.44;7312854;19;129370;-40
2023/06/05 10:19:19;;;;;;;24.75;2.10;;;;;;;22.95;51.58;99776.69;7311406;19;130049;-41
2023/06/05 10:21:47;;;;;;;42.42;3.05;;;;;;;22.94;52.39;99775.03;7310844;19;129174;-38
2023/06/05 10:24:17;;;;;;;44.35;2.92;;;;;;;22.87;52.34;99769.53;7309190;19;129064;-39
2023/06/05 10:27:15;;;;;;;46.28;3.42;;;;;;;23.01;51.91;99776.09;7312573;19;130167;-39
2023/06/05 10:30:02;;;;;;;40.15;2.80;;;;;;;22.97;52.66;99778.19;7313047;19;130400;-40
2023/06/05 10:32:31;;;;;;;39.15;2.90;;;;;;;22.95;51.92;99763.56;7311570;19;129583;-41
2023/06/05 10:35:18;;;;;;;31.92;2.28;;;;;;;22.98;52.69;99765.91;7309200;19;129405;-39
2023/06/05 10:37:52;;;;;;;32.40;2.58;;;;;;;22.94;52.12;99772.44;7312748;19;130747;-39
2023/06/05 10:40:18;;;;;;;76.63;5.25;;;;;;;22.94;51.93;99764.56;7323674;19;129384;-40
2023/06/05 10:42:43;;;;;;;32.30;2.47;;;;;;;22.96;52.05;99773.91;7325862;19;129486;-41
2023/06/05 10:45:09;;;;;;;36.17;2.63;;;;;;;22.95;52.23;99761.78;7326791;19;129002;-40
2023/06/05 10:47:35;;;;;;;41.50;2.87;;;;;;;22.94;50.50;99760.13;7326356;19;129526;-40
2023/06/05 10:50:16;;;;;;;27.37;2.07;;;;;;;22.93;52.45;99760.25;7326395;19;130421;-41
2023/06/05 10:52:42;;;;;;;31.73;2.65;;;;;;;22.94;52.08;99756.69;7324521;19;129125;-40
2023/06/05 10:55:08;;;;;;;40.88;2.88;;;;;;;22.95;52.56;99755.72;7324676;19;130316;-40
2023/06/05 10:58:02;;;;;;;48.03;3.08;;;;;;;22.98;52.43;99756.25;7326146;19;129485;-41
2023/06/05 11:00:31;;;;;;;89.95;5.65;;;;;;;22.96;51.46;99752.94;7323580;19;132049;-40
2023/06/05 11:02:57;;;;;;;42.83;2.58;;;;;;;22.97;52.13;99751.16;7326815;19;129357;-41
2023/06/05 11:05:23;;;;;;;80.47;5.07;;;;;;;22.97;52.45;99753.78;7325497;19;129234;-41
2023/06/05 11:08:15;;;;;;;27.00;2.23;;;;;;;23.03;53.12;99753.19;7326411;19;129404;-40
2023/06/05 11:11:04;;;;;;;9.20;1.65;;;;;;;23.01;52.90;99763.00;7324528;19;131115;-40
2023/06/05 11:13:55;;;;;;;34.55;2.50;;;;;;;22.98;52.76;99755.41;7324881;19;130886;-40
2023/06/05 11:16:26;;;;;;;86.35;5.63;;;;;;;22.98;53.17;99758.88;7307961;19;130652;-39
2023/06/05 11:18:51;;;;;;;25.63;1.83;;;;;;;22.98;52.98;99758.88;7313179;19;129895;-40
2023/06/05 11:21:17;;;;;;;54.00;3.40;;;;;;;22.97;52.17;99759.03;7323851;19;129592;-39